Wetterdaten: Woche 09.10.23 - 15.10.23 (KW41)
Datum Zeit Temp. Aussen Temp. o. S. Temp +5cm Feuchte Auss Luftdruck Regen Sonnenschein Regendauer Solar Windben Empfang
09.10.2023 00:00 14,1 C 12,8 C 9,5 C 96 % 1021,9 hPa 0,0 l/m 0,00 h 0,00 h 0 W/m 0,1 km/h (0 Bft) 97,12 %
09.10.2023 01:00 13,9 C 13,2 C 9,9 C 97 % 1021,3 hPa 0,0 l/m 0,00 h 0,00 h 0 W/m 1,9 km/h (1 Bft) 97,58 %
09.10.2023 02:00 14,1 C 13,2 C 10,0 C 97 % 1021,0 hPa 0,0 l/m 0,00 h 0,00 h 0 W/m 0,6 km/h (0 Bft) 95,07 %
09.10.2023 03:00 13,8 C 12,9 C 9,7 C 97 % 1020,6 hPa 0,0 l/m 0,00 h 0,00 h 0 W/m 0,2 km/h (0 Bft) 98,88 %
09.10.2023 04:00 13,7 C 12,9 C 9,9 C 97 % 1020,5 hPa 0,0 l/m 0,00 h 0,00 h 0 W/m 0,2 km/h (0 Bft) 96,16 %
09.10.2023 05:00 14,4 C 14,2 C 10,7 C 97 % 1020,2 hPa 0,0 l/m 0,00 h 0,00 h 0 W/m 2,9 km/h (1 Bft) 97,28 %
09.10.2023 06:00 15,0 C 14,5 C 11,1 C 96 % 1019,8 hPa 0,0 l/m 0,00 h 0,00 h 0 W/m 4,9 km/h (1 Bft) 98,17 %
09.10.2023 07:00 15,5 C 15,0 C 11,4 C 93 % 1019,8 hPa 0,0 l/m 0,00 h 0,00 h 0 W/m 5,2 km/h (1 Bft) 95,66 %
09.10.2023 08:00 15,8 C 15,2 C 11,7 C 91 % 1020,5 hPa 0,0 l/m 0,00 h 0,03 h 22 W/m 5,9 km/h (2 Bft) 98,02 %
09.10.2023 09:00 16,3 C 15,9 C 12,1 C 91 % 1020,7 hPa 0,0 l/m 0,00 h 0,00 h 63 W/m 2,0 km/h (1 Bft) 95,90 %
09.10.2023 10:00 16,8 C 16,5 C 12,7 C 90 % 1020,8 hPa 0,0 l/m 0,00 h 0,07 h 91 W/m 7,7 km/h (2 Bft) 97,95 %
09.10.2023 11:00 17,5 C 17,6 C 13,5 C 88 % 1020,4 hPa 0,0 l/m 0,00 h 0,00 h 172 W/m 12,3 km/h (3 Bft) 97,76 %
09.10.2023 12:00 18,6 C 18,6 C 14,5 C 84 % 1020,7 hPa 0,0 l/m 0,00 h 0,00 h 214 W/m 10,3 km/h (2 Bft) 96,98 %
09.10.2023 13:00 19,2 C 19,1 C 15,2 C 82 % 1020,8 hPa 0,0 l/m 0,00 h 0,00 h 231 W/m 12,4 km/h (3 Bft) 98,74 %
09.10.2023 14:00 19,9 C 19,7 C 15,6 C 80 % 1020,5 hPa 0,0 l/m 0,33 h 0,00 h 239 W/m 13,4 km/h (3 Bft) 100,00 %
09.10.2023 15:00 19,9 C 19,7 C 15,7 C 81 % 1020,5 hPa 0,0 l/m 0,47 h 0,00 h 232 W/m 10,5 km/h (2 Bft) 96,21 %
09.10.2023 16:00 20,6 C 20,5 C 16,1 C 80 % 1020,4 hPa 0,0 l/m 0,97 h 0,00 h 272 W/m 10,3 km/h (2 Bft) 98,21 %
09.10.2023 17:00 20,6 C 20,0 C 16,0 C 79 % 1020,3 hPa 0,0 l/m 0,67 h 0,00 h 121 W/m 8,7 km/h (2 Bft) 97,23 %
09.10.2023 18:00 19,5 C 18,4 C 14,6 C 83 % 1020,5 hPa 0,0 l/m 0,00 h 0,00 h 13 W/m 4,0 km/h (1 Bft) 97,99 %
09.10.2023 19:00 18,6 C 17,3 C 13,8 C 87 % 1020,9 hPa 0,0 l/m 0,00 h 0,00 h 0 W/m 3,1 km/h (1 Bft) 97,80 %
09.10.2023 20:00 17,9 C 16,8 C 12,8 C 89 % 1021,3 hPa 0,0 l/m 0,00 h 0,00 h 0 W/m 1,7 km/h (1 Bft) 97,22 %
09.10.2023 21:00 17,2 C 15,8 C 11,6 C 90 % 1021,4 hPa 0,0 l/m 0,00 h 0,00 h 0 W/m 0,3 km/h (0 Bft) 96,96 %
09.10.2023 22:00 16,4 C 15,3 C 11,5 C 91 % 1021,7 hPa 0,0 l/m 0,00 h 0,00 h 0 W/m 0,7 km/h (0 Bft) 99,36 %
09.10.2023 23:00 15,7 C 14,5 C 10,7 C 92 % 1021,8 hPa 0,0 l/m 0,00 h 0,00 h 0 W/m 0,0 km/h (0 Bft) 96,13 %
10.10.2023 00:00 15,0 C 13,9 C 10,2 C 94 % 1021,6 hPa 0,0 l/m 0,00 h 0,00 h 0 W/m 0,0 km/h (0 Bft) 97,89 %
10.10.2023 01:00 14,5 C 13,2 C 9,9 C 95 % 1021,6 hPa 0,0 l/m 0,00 h 0,00 h 0 W/m 0,0 km/h (0 Bft) 98,77 %
10.10.2023 02:00 14,1 C 12,8 C 9,4 C 96 % 1021,5 hPa 0,0 l/m 0,00 h 0,00 h 0 W/m 0,0 km/h (0 Bft) 96,02 %
10.10.2023 03:00 13,6 C 12,8 C 9,4 C 96 % 1021,3 hPa 0,0 l/m 0,00 h 0,00 h 0 W/m 0,0 km/h (0 Bft) 98,00 %
10.10.2023 04:00 13,4 C 12,2 C 9,4 C 97 % 1020,8 hPa 0,0 l/m 0,00 h 0,00 h 0 W/m 0,1 km/h (0 Bft) 96,65 %
10.10.2023 05:00 13,1 C 12,2 C 8,9 C 97 % 1020,6 hPa 0,0 l/m 0,00 h 0,00 h 0 W/m 0,2 km/h (0 Bft) 98,94 %
10.10.2023 06:00 12,7 C 11,8 C 8,9 C 97 % 1020,5 hPa 0,0 l/m 0,00 h 0,00 h 0 W/m 0,8 km/h (0 Bft) 95,43 %
10.10.2023 07:00 12,6 C 11,9 C 8,9 C 97 % 1020,3 hPa 0,0 l/m 0,00 h 0,00 h 4 W/m 1,3 km/h (1 Bft) 96,33 %
10.10.2023 08:00 12,4 C 11,9 C 9,0 C 97 % 1020,1 hPa 0,0 l/m 0,00 h 0,00 h 28 W/m 4,8 km/h (1 Bft) 99,15 %
10.10.2023 09:00 12,9 C 13,1 C 9,7 C 98 % 1020,1 hPa 0,0 l/m 0,00 h 0,00 h 70 W/m 3,5 km/h (1 Bft) 95,58 %
10.10.2023 10:00 14,3 C 15,6 C 11,4 C 97 % 1019,9 hPa 0,0 l/m 0,00 h 0,00 h 132 W/m 6,0 km/h (2 Bft) 98,75 %
10.10.2023 11:00 16,8 C 19,1 C 13,8 C 92 % 1019,9 hPa 0,0 l/m 0,27 h 0,00 h 214 W/m 4,3 km/h (1 Bft) 97,47 %
10.10.2023 12:00 19,1 C 19,3 C 15,1 C 77 % 1019,7 hPa 0,0 l/m 0,00 h 0,00 h 117 W/m 12,5 km/h (3 Bft) 96,04 %
10.10.2023 13:00 20,8 C 20,5 C 15,9 C 70 % 1019,3 hPa 0,0 l/m 0,03 h 0,00 h 125 W/m 16,2 km/h (3 Bft) 98,69 %
10.10.2023 14:00 22,3 C 22,2 C 16,8 C 65 % 1018,7 hPa 0,0 l/m 1,00 h 0,00 h 467 W/m 13,3 km/h (3 Bft) 97,24 %
10.10.2023 15:00 23,2 C 22,4 C 17,4 C 62 % 1018,3 hPa 0,0 l/m 1,00 h 0,00 h 430 W/m 13,4 km/h (3 Bft) 96,75 %
10.10.2023 16:00 23,2 C 22,6 C 17,5 C 63 % 1018,0 hPa 0,0 l/m 0,90 h 0,00 h 279 W/m 11,0 km/h (2 Bft) 98,75 %
10.10.2023 17:00 22,9 C 21,9 C 16,9 C 65 % 1017,7 hPa 0,0 l/m 0,13 h 0,00 h 73 W/m 8,9 km/h (2 Bft) 97,91 %
10.10.2023 18:00 21,8 C 20,1 C 15,1 C 69 % 1017,5 hPa 0,0 l/m 0,00 h 0,00 h 17 W/m 4,8 km/h (1 Bft) 97,10 %
10.10.2023 19:00 20,4 C 18,3 C 13,9 C 73 % 1017,3 hPa 0,0 l/m 0,00 h 0,00 h 0 W/m 2,8 km/h (1 Bft) 97,96 %
10.10.2023 20:00 18,9 C 17,2 C 13,3 C 78 % 1017,1 hPa 0,0 l/m 0,00 h 0,00 h 0 W/m 2,9 km/h (1 Bft) 96,59 %
10.10.2023 21:00 18,0 C 16,9 C 13,0 C 79 % 1016,8 hPa 0,0 l/m 0,00 h 0,00 h 0 W/m 4,3 km/h (1 Bft) 96,49 %
10.10.2023 22:00 17,4 C 16,2 C 11,8 C 79 % 1016,5 hPa 0,0 l/m 0,00 h 0,00 h 0 W/m 0,9 km/h (0 Bft) 97,94 %
10.10.2023 23:00 16,8 C 15,9 C 11,6 C 79 % 1016,5 hPa 0,0 l/m 0,00 h 0,00 h 0 W/m 1,7 km/h (1 Bft) 96,15 %
11.10.2023 00:00 16,6 C 15,7 C 11,5 C 80 % 1016,3 hPa 0,0 l/m 0,00 h 0,00 h 0 W/m 4,8 km/h (1 Bft) 99,61 %
11.10.2023 01:00 16,8 C 15,9 C 11,9 C 81 % 1016,0 hPa 0,0 l/m 0,00 h 0,00 h 0 W/m 7,0 km/h (2 Bft) 93,92 %
11.10.2023 02:00 16,8 C 15,9 C 11,9 C 82 % 1015,9 hPa 0,0 l/m 0,00 h 0,00 h 0 W/m 8,6 km/h (2 Bft) 98,28 %
11.10.2023 03:00 17,0 C 16,2 C 12,4 C 83 % 1015,6 hPa 0,0 l/m 0,00 h 0,00 h 0 W/m 8,5 km/h (2 Bft) 97,54 %
11.10.2023 04:00 17,2 C 16,2 C 12,4 C 81 % 1015,1 hPa 0,0 l/m 0,00 h 0,00 h 0 W/m 10,5 km/h (2 Bft) 97,83 %
11.10.2023 05:00 16,8 C 15,9 C 12,1 C 80 % 1014,8 hPa 0,0 l/m 0,00 h 0,00 h 0 W/m 12,3 km/h (3 Bft) 97,61 %
11.10.2023 06:00 16,1 C 14,7 C 11,0 C 81 % 1014,8 hPa 0,0 l/m 0,00 h 0,00 h 0 W/m 3,9 km/h (1 Bft) 97,06 %
11.10.2023 07:00 15,3 C 14,2 C 10,6 C 83 % 1014,8 hPa 0,0 l/m 0,00 h 0,00 h 4 W/m 3,1 km/h (1 Bft) 97,32 %
11.10.2023 08:00 15,2 C 14,8 C 11,0 C 82 % 1014,8 hPa 0,0 l/m 0,00 h 0,00 h 30 W/m 9,5 km/h (2 Bft) 96,21 %
11.10.2023 09:00 17,0 C 16,8 C 12,6 C 78 % 1014,9 hPa 0,0 l/m 0,03 h 0,00 h 80 W/m 14,7 km/h (3 Bft) 99,10 %
11.10.2023 10:00 18,9 C 18,8 C 14,3 C 72 % 1015,1 hPa 0,0 l/m 0,03 h 0,00 h 114 W/m 15,1 km/h (3 Bft) 97,13 %
11.10.2023 11:00 20,3 C 21,7 C 16,2 C 69 % 1015,1 hPa 0,0 l/m 0,33 h 0,00 h 220 W/m 15,9 km/h (3 Bft) 97,15 %
11.10.2023 12:00 21,4 C 21,1 C 16,9 C 67 % 1015,2 hPa 0,0 l/m 0,12 h 0,00 h 161 W/m 16,0 km/h (3 Bft) 97,70 %
11.10.2023 13:00 21,9 C 21,3 C 17,2 C 67 % 1014,9 hPa 0,0 l/m 0,00 h 0,00 h 128 W/m 17,1 km/h (3 Bft) 97,88 %
11.10.2023 14:00 22,6 C 22,4 C 17,6 C 67 % 1014,4 hPa 0,0 l/m 0,97 h 0,00 h 385 W/m 16,4 km/h (3 Bft) 97,67 %
11.10.2023 15:00 23,3 C 23,0 C 18,3 C 66 % 1013,9 hPa 0,0 l/m 1,00 h 0,00 h 332 W/m 18,9 km/h (3 Bft) 96,26 %
11.10.2023 16:00 23,3 C 22,8 C 18,3 C 66 % 1013,3 hPa 0,0 l/m 0,83 h 0,00 h 193 W/m 16,4 km/h (3 Bft) 99,26 %
11.10.2023 17:00 22,8 C 22,0 C 17,7 C 64 % 1012,7 hPa 0,0 l/m 0,00 h 0,00 h 67 W/m 14,6 km/h (3 Bft) 97,31 %
11.10.2023 18:00 22,0 C 20,9 C 16,7 C 65 % 1012,4 hPa 0,0 l/m 0,00 h 0,00 h 24 W/m 12,4 km/h (3 Bft) 96,39 %
11.10.2023 19:00 21,8 C 20,8 C 16,7 C 61 % 1012,5 hPa 0,0 l/m 0,00 h 0,00 h 0 W/m 17,9 km/h (3 Bft) 99,24 %
11.10.2023 20:00 21,1 C 20,0 C 16,0 C 66 % 1012,5 hPa 0,0 l/m 0,00 h 0,00 h 0 W/m 13,0 km/h (3 Bft) 96,37 %
11.10.2023 21:00 20,4 C 19,3 C 15,3 C 72 % 1012,7 hPa 0,0 l/m 0,00 h 0,00 h 0 W/m 7,8 km/h (2 Bft) 97,12 %
11.10.2023 22:00 20,1 C 18,9 C 15,0 C 76 % 1012,4 hPa 0,0 l/m 0,00 h 0,00 h 0 W/m 12,7 km/h (3 Bft) 98,98 %
11.10.2023 23:00 19,9 C 18,9 C 15,0 C 77 % 1012,2 hPa 0,0 l/m 0,00 h 0,00 h 0 W/m 10,4 km/h (2 Bft) 96,15 %
12.10.2023 00:00 19,8 C 18,9 C 14,9 C 76 % 1012,1 hPa 0,0 l/m 0,00 h 0,03 h 0 W/m 14,0 km/h (3 Bft) 97,47 %
12.10.2023 01:00 19,7 C 18,9 C 15,0 C 75 % 1012,3 hPa 0,0 l/m 0,00 h 0,00 h 0 W/m 11,3 km/h (2 Bft) 99,22 %
12.10.2023 02:00 19,5 C 18,6 C 14,7 C 74 % 1012,2 hPa 0,0 l/m 0,00 h 0,00 h 0 W/m 13,7 km/h (3 Bft) 94,99 %
12.10.2023 03:00 18,6 C 17,5 C 13,4 C 78 % 1012,9 hPa 0,0 l/m 0,00 h 0,50 h 0 W/m 12,8 km/h (3 Bft) 97,33 %
12.10.2023 04:00 16,9 C 15,7 C 11,2 C 88 % 1013,7 hPa 0,8 l/m 0,00 h 0,70 h 0 W/m 9,8 km/h (2 Bft) 98,30 %
12.10.2023 05:00 15,8 C 14,7 C 10,8 C 93 % 1013,3 hPa 0,2 l/m 0,00 h 0,38 h 0 W/m 10,6 km/h (2 Bft) 95,90 %
12.10.2023 06:00 15,4 C 14,4 C 10,6 C 94 % 1013,3 hPa 0,4 l/m 0,00 h 0,97 h 0 W/m 4,5 km/h (1 Bft) 98,25 %
12.10.2023 07:00 15,2 C 14,3 C 10,6 C 95 % 1013,8 hPa 0,6 l/m 0,00 h 1,00 h 0 W/m 2,9 km/h (1 Bft) 98,08 %
12.10.2023 08:00 15,2 C 14,3 C 10,6 C 96 % 1014,2 hPa 0,0 l/m 0,00 h 0,27 h 5 W/m 5,4 km/h (1 Bft) 95,78 %
12.10.2023 09:00 15,4 C 14,8 C 11,0 C 97 % 1014,7 hPa 0,0 l/m 0,00 h 0,00 h 19 W/m 6,3 km/h (2 Bft) 98,38 %
12.10.2023 10:00 15,7 C 15,4 C 11,1 C 96 % 1014,9 hPa 0,0 l/m 0,00 h 0,00 h 48 W/m 8,3 km/h (2 Bft) 94,77 %
12.10.2023 11:00 16,7 C 17,0 C 12,7 C 94 % 1014,9 hPa 0,0 l/m 0,00 h 0,00 h 144 W/m 7,0 km/h (2 Bft) 95,61 %
12.10.2023 12:00 18,1 C 18,5 C 14,2 C 90 % 1014,8 hPa 0,0 l/m 0,00 h 0,00 h 170 W/m 7,6 km/h (2 Bft) 97,75 %
12.10.2023 13:00 18,6 C 18,3 C 14,2 C 86 % 1014,3 hPa 0,0 l/m 0,00 h 0,00 h 109 W/m 8,0 km/h (2 Bft) 97,46 %
12.10.2023 14:00 18,6 C 18,2 C 13,7 C 86 % 1014,0 hPa 0,0 l/m 0,00 h 0,12 h 135 W/m 11,7 km/h (2 Bft) 97,78 %
12.10.2023 15:00 18,5 C 18,1 C 14,2 C 86 % 1014,0 hPa 0,2 l/m 0,00 h 0,00 h 78 W/m 14,1 km/h (3 Bft) 97,98 %
12.10.2023 16:00 18,3 C 17,8 C 14,0 C 85 % 1013,8 hPa 0,0 l/m 0,00 h 0,00 h 63 W/m 16,3 km/h (3 Bft) 97,12 %
12.10.2023 17:00 17,9 C 17,2 C 13,6 C 87 % 1013,6 hPa 0,0 l/m 0,00 h 0,10 h 36 W/m 15,9 km/h (3 Bft) 97,69 %
12.10.2023 18:00 17,1 C 15,8 C 11,8 C 92 % 1013,8 hPa 0,4 l/m 0,00 h 0,20 h 13 W/m 16,0 km/h (3 Bft) 97,83 %
12.10.2023 19:00 16,4 C 15,2 C 11,7 C 96 % 1014,0 hPa 1,0 l/m 0,00 h 0,25 h 0 W/m 13,2 km/h (3 Bft) 95,81 %
12.10.2023 20:00 16,4 C 15,4 C 11,7 C 98 % 1014,0 hPa 0,0 l/m 0,00 h 0,00 h 0 W/m 13,9 km/h (3 Bft) 98,84 %
12.10.2023 21:00 16,4 C 15,6 C 11,8 C 98 % 1014,1 hPa 0,0 l/m 0,00 h 0,00 h 0 W/m 12,6 km/h (3 Bft) 96,95 %
12.10.2023 22:00 16,7 C 16,1 C 12,2 C 98 % 1014,1 hPa 0,0 l/m 0,00 h 0,00 h 0 W/m 13,8 km/h (3 Bft) 97,94 %
12.10.2023 23:00 16,9 C 16,1 C 12,2 C 99 % 1013,9 hPa 0,0 l/m 0,00 h 0,00 h 0 W/m 11,0 km/h (2 Bft) 97,57 %
13.10.2023 00:00 16,8 C 16,1 C 12,2 C 98 % 1013,6 hPa 0,0 l/m 0,00 h 0,00 h 0 W/m 9,1 km/h (2 Bft) 98,71 %
13.10.2023 01:00 16,8 C 16,1 C 12,2 C 98 % 1013,6 hPa 0,0 l/m 0,00 h 0,00 h 0 W/m 8,3 km/h (2 Bft) 96,49 %
13.10.2023 02:00 17,2 C 16,7 C 12,7 C 98 % 1013,2 hPa 0,0 l/m 0,00 h 0,03 h 0 W/m 10,1 km/h (2 Bft) 97,74 %
13.10.2023 03:00 17,3 C 16,6 C 12,8 C 98 % 1012,6 hPa 0,0 l/m 0,00 h 0,03 h 0 W/m 7,3 km/h (2 Bft) 95,29 %
13.10.2023 04:00 17,2 C 16,1 C 12,8 C 98 % 1011,7 hPa 0,2 l/m 0,00 h 0,10 h 0 W/m 1,7 km/h (1 Bft) 97,59 %
13.10.2023 05:00 17,2 C 16,1 C 12,8 C 98 % 1010,9 hPa 0,2 l/m 0,00 h 0,43 h 0 W/m 0,9 km/h (0 Bft) 96,98 %
13.10.2023 06:00 17,2 C 16,1 C 12,8 C 98 % 1009,9 hPa 0,4 l/m 0,00 h 0,50 h 0 W/m 4,3 km/h (1 Bft) 98,83 %
13.10.2023 07:00 17,5 C 16,7 C 13,2 C 99 % 1009,5 hPa 2,2 l/m 0,00 h 0,97 h 0 W/m 11,6 km/h (2 Bft) 95,71 %
13.10.2023 08:00 17,8 C 16,7 C 13,3 C 99 % 1009,0 hPa 0,6 l/m 0,00 h 0,50 h 14 W/m 13,0 km/h (3 Bft) 97,83 %
13.10.2023 09:00 18,0 C 17,2 C 13,9 C 99 % 1008,6 hPa 0,0 l/m 0,00 h 0,00 h 72 W/m 6,9 km/h (2 Bft) 95,62 %
13.10.2023 10:00 18,4 C 18,8 C 14,2 C 99 % 1008,0 hPa 0,0 l/m 0,03 h 0,00 h 125 W/m 11,9 km/h (2 Bft) 96,99 %
13.10.2023 11:00 20,4 C 21,6 C 14,3 C 88 % 1007,5 hPa 0,0 l/m 0,32 h 0,00 h 218 W/m 23,1 km/h (4 Bft) 98,11 %
13.10.2023 12:00 22,2 C 21,9 C 14,8 C 77 % 1006,9 hPa 0,0 l/m 0,00 h 0,00 h 166 W/m 27,8 km/h (4 Bft) 97,32 %
13.10.2023 13:00 23,3 C 23,2 C 18,2 C 74 % 1006,2 hPa 0,0 l/m 0,03 h 0,00 h 196 W/m 25,3 km/h (4 Bft) 97,74 %
13.10.2023 14:00 24,1 C 23,5 C 18,9 C 67 % 1005,7 hPa 0,0 l/m 0,00 h 0,00 h 146 W/m 27,0 km/h (4 Bft) 98,10 %
13.10.2023 15:00 24,1 C 23,4 C 18,9 C 64 % 1005,6 hPa 0,0 l/m 0,07 h 0,00 h 118 W/m 26,2 km/h (4 Bft) 97,22 %
13.10.2023 16:00 23,4 C 22,3 C 18,1 C 65 % 1005,2 hPa 0,0 l/m 0,00 h 0,00 h 34 W/m 22,7 km/h (4 Bft) 98,56 %
13.10.2023 17:00 22,6 C 21,7 C 17,3 C 67 % 1005,0 hPa 0,0 l/m 0,00 h 0,00 h 19 W/m 26,6 km/h (4 Bft) 95,91 %
13.10.2023 18:00 22,1 C 21,0 C 16,9 C 68 % 1004,5 hPa 0,0 l/m 0,00 h 0,00 h 9 W/m 20,7 km/h (4 Bft) 98,43 %
13.10.2023 19:00 21,0 C 19,6 C 14,0 C 76 % 1004,2 hPa 0,2 l/m 0,00 h 0,83 h 0 W/m 19,0 km/h (3 Bft) 98,38 %
13.10.2023 20:00 20,6 C 19,2 C 14,0 C 78 % 1003,5 hPa 0,2 l/m 0,00 h 0,68 h 0 W/m 26,2 km/h (4 Bft) 95,97 %
13.10.2023 21:00 20,1 C 18,0 C 13,3 C 82 % 1002,6 hPa 1,8 l/m 0,00 h 0,67 h 0 W/m 25,3 km/h (4 Bft) 98,85 %
13.10.2023 22:00 18,4 C 16,2 C 12,8 C 92 % 1002,3 hPa 1,4 l/m 0,00 h 0,43 h 0 W/m 12,4 km/h (3 Bft) 97,50 %
13.10.2023 23:00 19,0 C 17,8 C 12,8 C 88 % 1001,6 hPa 0,0 l/m 0,00 h 0,00 h 0 W/m 24,5 km/h (4 Bft) 96,63 %
14.10.2023 00:00 20,1 C 18,9 C 12,7 C 82 % 1000,9 hPa 0,0 l/m 0,00 h 0,00 h 0 W/m 26,3 km/h (4 Bft) 97,98 %
14.10.2023 01:00 19,9 C 18,4 C 13,6 C 82 % 1000,8 hPa 0,6 l/m 0,00 h 0,63 h 0 W/m 31,3 km/h (5 Bft) 97,87 %
14.10.2023 02:00 17,9 C 16,3 C 12,1 C 92 % 1001,3 hPa 1,2 l/m 0,00 h 0,43 h 0 W/m 17,4 km/h (3 Bft) 96,03 %
14.10.2023 03:00 16,0 C 14,3 C 10,5 C 92 % 1002,5 hPa 6,2 l/m 0,00 h 0,87 h 0 W/m 19,6 km/h (3 Bft) 99,29 %
14.10.2023 04:00 14,2 C 12,8 C 9,7 C 96 % 1004,1 hPa 2,0 l/m 0,00 h 0,53 h 0 W/m 12,2 km/h (2 Bft) 96,48 %
14.10.2023 05:00 12,8 C 11,7 C 8,4 C 97 % 1006,2 hPa 0,2 l/m 0,00 h 0,20 h 0 W/m 19,9 km/h (4 Bft) 94,74 %
14.10.2023 06:00 12,3 C 11,4 C 8,1 C 96 % 1008,0 hPa 0,0 l/m 0,00 h 0,00 h 0 W/m 11,6 km/h (2 Bft) 97,37 %
14.10.2023 07:00 11,8 C 10,7 C 7,4 C 94 % 1009,3 hPa 0,0 l/m 0,00 h 0,00 h 0 W/m 10,1 km/h (2 Bft) 98,03 %
14.10.2023 08:00 11,3 C 10,2 C 6,9 C 93 % 1010,6 hPa 0,0 l/m 0,00 h 0,00 h 16 W/m 11,8 km/h (2 Bft) 96,71 %
14.10.2023 09:00 11,5 C 11,1 C 7,5 C 92 % 1011,7 hPa 0,0 l/m 0,00 h 0,00 h 49 W/m 13,7 km/h (3 Bft) 95,67 %
14.10.2023 10:00 12,2 C 12,2 C 8,6 C 88 % 1012,6 hPa 0,0 l/m 0,00 h 0,00 h 105 W/m 15,4 km/h (3 Bft) 99,85 %
14.10.2023 11:00 13,1 C 14,5 C 9,7 C 82 % 1013,3 hPa 0,0 l/m 0,37 h 0,00 h 203 W/m 16,4 km/h (3 Bft) 96,62 %
14.10.2023 12:00 13,9 C 13,8 C 10,1 C 76 % 1013,7 hPa 0,0 l/m 0,00 h 0,00 h 117 W/m 19,4 km/h (3 Bft) 96,42 %
14.10.2023 13:00 14,6 C 14,4 C 10,6 C 71 % 1014,0 hPa 0,0 l/m 0,07 h 0,00 h 131 W/m 17,9 km/h (3 Bft) 97,92 %
14.10.2023 14:00 14,5 C 13,8 C 10,0 C 69 % 1014,3 hPa 0,0 l/m 0,40 h 0,13 h 263 W/m 19,0 km/h (3 Bft) 97,44 %
14.10.2023 15:00 14,0 C 13,7 C 9,8 C 75 % 1014,6 hPa 0,2 l/m 0,57 h 0,07 h 286 W/m 17,1 km/h (3 Bft) 96,60 %
14.10.2023 16:00 14,0 C 13,5 C 9,7 C 69 % 1015,1 hPa 0,0 l/m 0,47 h 0,00 h 204 W/m 21,2 km/h (4 Bft) 98,01 %
14.10.2023 17:00 13,1 C 12,5 C 8,4 C 71 % 1015,7 hPa 0,0 l/m 0,20 h 0,07 h 68 W/m 16,2 km/h (3 Bft) 96,75 %
14.10.2023 18:00 11,7 C 10,8 C 7,3 C 78 % 1016,3 hPa 0,0 l/m 0,00 h 0,00 h 13 W/m 11,1 km/h (2 Bft) 99,23 %
14.10.2023 19:00 11,3 C 10,6 C 7,2 C 79 % 1017,3 hPa 0,0 l/m 0,00 h 0,00 h 0 W/m 9,7 km/h (2 Bft) 96,26 %
14.10.2023 20:00 10,9 C 10,0 C 6,8 C 81 % 1017,9 hPa 0,0 l/m 0,00 h 0,00 h 0 W/m 5,8 km/h (2 Bft) 95,76 %
14.10.2023 21:00 10,3 C 9,4 C 6,2 C 81 % 1018,4 hPa 0,0 l/m 0,00 h 0,00 h 0 W/m 3,8 km/h (1 Bft) 98,61 %
14.10.2023 22:00 9,4 C 8,4 C 5,4 C 86 % 1018,8 hPa 0,0 l/m 0,00 h 0,00 h 0 W/m 3,6 km/h (1 Bft) 97,50 %
14.10.2023 23:00 8,8 C 8,0 C 4,9 C 89 % 1019,0 hPa 0,0 l/m 0,00 h 0,00 h 0 W/m 4,2 km/h (1 Bft) 97,02 %
15.10.2023 00:00 8,2 C 7,3 C 4,4 C 91 % 1018,8 hPa 0,0 l/m 0,00 h 0,00 h 0 W/m 4,8 km/h (1 Bft) 96,01 %
15.10.2023 01:00 7,9 C 7,2 C 4,4 C 91 % 1018,8 hPa 0,0 l/m 0,00 h 0,00 h 0 W/m 4,7 km/h (1 Bft) 99,08 %
15.10.2023 02:00 7,7 C 7,0 C 4,2 C 92 % 1018,7 hPa 0,0 l/m 0,00 h 0,00 h 0 W/m 3,2 km/h (1 Bft) 97,39 %
15.10.2023 03:00 7,5 C 6,8 C 3,9 C 92 % 1018,5 hPa 0,0 l/m 0,00 h 0,00 h 0 W/m 5,5 km/h (1 Bft) 93,54 %
15.10.2023 04:00 7,7 C 7,2 C 4,2 C 93 % 1018,8 hPa 0,0 l/m 0,00 h 0,03 h 0 W/m 2,9 km/h (1 Bft) 98,36 %
15.10.2023 05:00 7,8 C 7,2 C 4,1 C 93 % 1018,9 hPa 0,2 l/m 0,00 h 0,10 h 0 W/m 4,0 km/h (1 Bft) 97,13 %
15.10.2023 06:00 7,6 C 6,9 C 3,6 C 94 % 1019,0 hPa 0,4 l/m 0,00 h 0,07 h 0 W/m 7,2 km/h (2 Bft) 97,60 %
15.10.2023 07:00 7,1 C 6,6 C 3,2 C 94 % 1019,1 hPa 0,2 l/m 0,00 h 0,37 h 0 W/m 6,3 km/h (2 Bft) 96,57 %
15.10.2023 08:00 7,2 C 6,7 C 3,3 C 95 % 1019,2 hPa 0,0 l/m 0,00 h 0,00 h 13 W/m 6,1 km/h (2 Bft) 97,85 %
15.10.2023 09:00 7,5 C 7,3 C 4,3 C 93 % 1020,1 hPa 0,0 l/m 0,07 h 0,03 h 66 W/m 10,2 km/h (2 Bft) 98,90 %
15.10.2023 10:00 8,1 C 8,1 C 4,9 C 91 % 1020,7 hPa 0,0 l/m 0,00 h 0,00 h 111 W/m 10,1 km/h (2 Bft) 94,65 %
15.10.2023 11:00 8,9 C 9,1 C 5,7 C 89 % 1021,5 hPa 0,0 l/m 0,07 h 0,10 h 182 W/m 13,4 km/h (3 Bft) 99,28 %
15.10.2023 12:00 9,3 C 9,5 C 5,7 C 87 % 1022,1 hPa 0,0 l/m 0,00 h 0,33 h 142 W/m 13,1 km/h (3 Bft) 97,33 %
15.10.2023 13:00 9,6 C 9,7 C 6,0 C 85 % 1022,3 hPa 0,0 l/m 0,03 h 0,07 h 138 W/m 9,0 km/h (2 Bft) 96,28 %
15.10.2023 14:00 10,5 C 10,4 C 6,6 C 81 % 1022,4 hPa 0,0 l/m 0,57 h 0,00 h 365 W/m 12,5 km/h (3 Bft) 98,07 %
15.10.2023 15:00 10,8 C 10,5 C 6,6 C 77 % 1022,6 hPa 0,0 l/m 0,43 h 0,00 h 249 W/m 14,8 km/h (3 Bft) 97,86 %
15.10.2023 16:00 10,1 C 9,3 C 5,3 C 80 % 1023,1 hPa 0,6 l/m 0,43 h 0,13 h 154 W/m 9,0 km/h (2 Bft) 97,58 %
15.10.2023 17:00 9,2 C 8,7 C 4,8 C 88 % 1023,2 hPa 0,0 l/m 0,13 h 0,00 h 46 W/m 4,8 km/h (1 Bft) 97,06 %
15.10.2023 18:00 9,1 C 7,9 C 4,7 C 88 % 1023,6 hPa 0,0 l/m 0,00 h 0,00 h 16 W/m 3,7 km/h (1 Bft) 96,35 %
15.10.2023 19:00 8,1 C 7,0 C 3,8 C 88 % 1024,2 hPa 0,0 l/m 0,00 h 0,00 h 0 W/m 4,2 km/h (1 Bft) 98,08 %
15.10.2023 20:00 8,0 C 6,9 C 3,8 C 90 % 1024,7 hPa 0,0 l/m 0,00 h 0,00 h 0 W/m 2,7 km/h (1 Bft) 96,53 %
15.10.2023 21:00 7,1 C 6,0 C 2,8 C 92 % 1025,1 hPa 0,0 l/m 0,00 h 0,00 h 0 W/m 0,7 km/h (0 Bft) 96,10 %
15.10.2023 22:00 6,4 C 5,4 C 2,5 C 93 % 1025,3 hPa 0,0 l/m 0,00 h 0,00 h 0 W/m 0,9 km/h (0 Bft) 97,81 %
15.10.2023 23:00 5,9 C 4,8 C 2,0 C 94 % 1025,2 hPa 0,0 l/m 0,00 h 0,00 h 0 W/m 0,5 km/h (0 Bft) 97,46 %
Min-Datum _ 15.10.23 15.10.23 15.10.23 10.10.23 14.10.23 - - - - 09.10.23 11.10.23
_ Min-Zeit 23:56 23:38 23:36 15:46 01:02 - - - - 00:00 01:18
Minimum _ 5,6 C 4,4 C 1,7 C 59 % 1000,5 hPa - - - - 0,0 km/h (0 Bft) 38,24 %
Max-Datum _ 13.10.23 13.10.23 11.10.23 13.10.23 15.10.23 14.10.23 09.10.23 12.10.23 14.10.23 14.10.23 09.10.23
_ Max-Zeit 15:14 11:42 15:40 09:28 22:00 03:20 14:00 05:10 14:24 01:24 00:38
Maximum _ 24,2 C 23,9 C 18,9 C 100 % 1025,3 hPa 6,2 l/m 0,08 h 0,08 h 610 W/m 61,2 km/h
S-SO (7 Bft)
100,00 %
Durchschnitt _ 16,0 C 15,3 C 11,4 C 85 % 1015,5 hPa #22,6 l/m #13:20 h #13:58 h 130 W/m 10,0 km/h (2 Bft) 97,34 %
© 2023 W. Hausmann